sensor_id;sensor_type;location;lat;lon;timestamp;P1;durP1;ratioP1;P2;durP2;ratioP2
40176;SDS011;31511;46.176;9.874;2022-10-16T00:02:07;14.20;;;10.63;;
40176;SDS011;31511;46.176;9.874;2022-10-16T00:04:33;16.65;;;11.07;;
40176;SDS011;31511;46.176;9.874;2022-10-16T00:06:59;14.60;;;11.73;;
40176;SDS011;31511;46.176;9.874;2022-10-16T00:09:27;17.77;;;11.30;;
40176;SDS011;31511;46.176;9.874;2022-10-16T00:11:55;14.95;;;11.15;;
40176;SDS011;31511;46.176;9.874;2022-10-16T00:14:22;16.77;;;11.20;;
40176;SDS011;31511;46.176;9.874;2022-10-16T00:16:51;20.27;;;10.98;;
40176;SDS011;31511;46.176;9.874;2022-10-16T00:19:17;13.85;;;10.82;;
40176;SDS011;31511;46.176;9.874;2022-10-16T00:21:44;17.38;;;12.20;;
40176;SDS011;31511;46.176;9.874;2022-10-16T00:24:10;15.27;;;11.30;;
40176;SDS011;31511;46.176;9.874;2022-10-16T00:26:37;13.02;;;10.13;;
40176;SDS011;31511;46.176;9.874;2022-10-16T00:29:04;13.85;;;10.10;;
40176;SDS011;31511;46.176;9.874;2022-10-16T00:31:30;16.88;;;10.93;;
40176;SDS011;31511;46.176;9.874;2022-10-16T00:33:56;15.85;;;11.05;;
40176;SDS011;31511;46.176;9.874;2022-10-16T00:36:25;13.50;;;10.35;;
40176;SDS011;31511;46.176;9.874;2022-10-16T00:38:54;12.98;;;9.90;;
40176;SDS011;31511;46.176;9.874;2022-10-16T00:41:22;12.45;;;8.98;;
40176;SDS011;31511;46.176;9.874;2022-10-16T00:43:55;12.88;;;9.60;;
40176;SDS011;31511;46.176;9.874;2022-10-16T00:46:26;11.50;;;8.82;;
40176;SDS011;31511;46.176;9.874;2022-10-16T00:49:00;11.02;;;9.48;;
40176;SDS011;31511;46.176;9.874;2022-10-16T00:51:32;12.40;;;9.70;;
40176;SDS011;31511;46.176;9.874;2022-10-16T00:53:58;12.45;;;9.23;;
40176;SDS011;31511;46.176;9.874;2022-10-16T00:56:25;16.60;;;9.88;;
40176;SDS011;31511;46.176;9.874;2022-10-16T00:58:51;14.98;;;8.82;;
40176;SDS011;31511;46.176;9.874;2022-10-16T01:01:17;17.83;;;8.88;;
40176;SDS011;31511;46.176;9.874;2022-10-16T01:03:44;11.93;;;9.23;;
40176;SDS011;31511;46.176;9.874;2022-10-16T01:08:44;14.73;;;9.20;;
40176;SDS011;31511;46.176;9.874;2022-10-16T01:13:38;11.95;;;8.88;;
40176;SDS011;31511;46.176;9.874;2022-10-16T01:18:40;11.55;;;9.43;;
40176;SDS011;31511;46.176;9.874;2022-10-16T01:21:13;10.95;;;8.30;;
40176;SDS011;31511;46.176;9.874;2022-10-16T01:28:54;13.07;;;8.05;;
40176;SDS011;31511;46.176;9.874;2022-10-16T01:31:22;9.10;;;7.95;;
40176;SDS011;31511;46.176;9.874;2022-10-16T01:34:00;14.20;;;8.90;;
40176;SDS011;31511;46.176;9.874;2022-10-16T01:36:29;10.82;;;8.10;;
40176;SDS011;31511;46.176;9.874;2022-10-16T01:38:57;13.65;;;7.95;;
40176;SDS011;31511;46.176;9.874;2022-10-16T01:41:30;12.07;;;7.85;;
40176;SDS011;31511;46.176;9.874;2022-10-16T01:44:01;12.60;;;9.27;;
40176;SDS011;31511;46.176;9.874;2022-10-16T01:46:30;13.48;;;8.10;;
40176;SDS011;31511;46.176;9.874;2022-10-16T01:48:56;11.68;;;8.70;;
40176;SDS011;31511;46.176;9.874;2022-10-16T01:51:23;13.35;;;8.05;;
40176;SDS011;31511;46.176;9.874;2022-10-16T01:53:52;13.35;;;8.00;;
40176;SDS011;31511;46.176;9.874;2022-10-16T01:56:19;10.65;;;8.55;;
40176;SDS011;31511;46.176;9.874;2022-10-16T01:59:00;12.48;;;8.60;;
40176;SDS011;31511;46.176;9.874;2022-10-16T02:01:27;11.38;;;7.93;;
40176;SDS011;31511;46.176;9.874;2022-10-16T02:03:54;12.38;;;9.02;;
40176;SDS011;31511;46.176;9.874;2022-10-16T02:06:22;13.07;;;9.60;;
40176;SDS011;31511;46.176;9.874;2022-10-16T02:08:50;12.13;;;9.10;;
40176;SDS011;31511;46.176;9.874;2022-10-16T02:11:16;12.48;;;8.98;;
40176;SDS011;31511;46.176;9.874;2022-10-16T02:13:46;11.60;;;8.80;;
40176;SDS011;31511;46.176;9.874;2022-10-16T02:16:13;10.85;;;8.27;;
40176;SDS011;31511;46.176;9.874;2022-10-16T02:18:40;11.27;;;8.07;;
40176;SDS011;31511;46.176;9.874;2022-10-16T02:21:25;13.32;;;8.73;;
40176;SDS011;31511;46.176;9.874;2022-10-16T02:24:00;11.05;;;7.57;;
40176;SDS011;31511;46.176;9.874;2022-10-16T02:26:30;10.18;;;7.68;;
40176;SDS011;31511;46.176;9.874;2022-10-16T02:28:59;9.38;;;7.88;;
40176;SDS011;31511;46.176;9.874;2022-10-16T02:31:30;20.35;;;8.80;;
40176;SDS011;31511;46.176;9.874;2022-10-16T02:33:59;10.35;;;7.95;;
40176;SDS011;31511;46.176;9.874;2022-10-16T02:36:26;9.38;;;7.38;;
40176;SDS011;31511;46.176;9.874;2022-10-16T02:38:53;15.48;;;8.27;;
40176;SDS011;31511;46.176;9.874;2022-10-16T02:41:20;11.02;;;8.40;;
40176;SDS011;31511;46.176;9.874;2022-10-16T02:43:46;14.50;;;8.73;;
40176;SDS011;31511;46.176;9.874;2022-10-16T02:46:12;11.15;;;7.85;;
40176;SDS011;31511;46.176;9.874;2022-10-16T02:48:39;10.90;;;7.88;;
40176;SDS011;31511;46.176;9.874;2022-10-16T02:51:05;10.00;;;7.80;;
40176;SDS011;31511;46.176;9.874;2022-10-16T02:53:32;11.70;;;6.85;;
40176;SDS011;31511;46.176;9.874;2022-10-16T02:55:58;11.43;;;7.55;;
40176;SDS011;31511;46.176;9.874;2022-10-16T02:58:24;10.77;;;7.38;;
40176;SDS011;31511;46.176;9.874;2022-10-16T03:00:50;13.00;;;8.05;;
40176;SDS011;31511;46.176;9.874;2022-10-16T03:03:16;10.73;;;8.98;;
40176;SDS011;31511;46.176;9.874;2022-10-16T03:05:43;12.23;;;8.13;;
40176;SDS011;31511;46.176;9.874;2022-10-16T03:08:11;8.95;;;7.53;;
40176;SDS011;31511;46.176;9.874;2022-10-16T03:10:40;11.73;;;8.40;;
40176;SDS011;31511;46.176;9.874;2022-10-16T03:13:07;9.38;;;7.45;;
40176;SDS011;31511;46.176;9.874;2022-10-16T03:15:33;10.30;;;8.18;;
40176;SDS011;31511;46.176;9.874;2022-10-16T03:17:59;12.05;;;8.00;;
40176;SDS011;31511;46.176;9.874;2022-10-16T03:20:26;11.75;;;8.30;;
40176;SDS011;31511;46.176;9.874;2022-10-16T03:22:55;10.18;;;7.55;;
40176;SDS011;31511;46.176;9.874;2022-10-16T03:25:22;12.73;;;8.05;;
40176;SDS011;31511;46.176;9.874;2022-10-16T03:27:51;12.32;;;8.25;;
40176;SDS011;31511;46.176;9.874;2022-10-16T03:30:17;13.10;;;8.25;;
40176;SDS011;31511;46.176;9.874;2022-10-16T03:32:44;11.43;;;8.95;;
40176;SDS011;31511;46.176;9.874;2022-10-16T03:35:11;13.05;;;8.10;;
40176;SDS011;31511;46.176;9.874;2022-10-16T03:37:38;10.13;;;8.55;;
40176;SDS011;31511;46.176;9.874;2022-10-16T03:40:05;14.82;;;9.05;;
40176;SDS011;31511;46.176;9.874;2022-10-16T03:42:31;12.25;;;8.85;;
40176;SDS011;31511;46.176;9.874;2022-10-16T03:44:57;11.27;;;8.90;;
40176;SDS011;31511;46.176;9.874;2022-10-16T03:47:24;14.25;;;8.63;;
40176;SDS011;31511;46.176;9.874;2022-10-16T03:49:53;10.13;;;8.32;;
40176;SDS011;31511;46.176;9.874;2022-10-16T03:52:19;11.57;;;8.90;;
40176;SDS011;31511;46.176;9.874;2022-10-16T03:54:45;11.60;;;8.73;;
40176;SDS011;31511;46.176;9.874;2022-10-16T03:57:11;12.73;;;9.48;;
40176;SDS011;31511;46.176;9.874;2022-10-16T03:59:37;12.75;;;9.43;;
40176;SDS011;31511;46.176;9.874;2022-10-16T04:02:03;12.23;;;9.50;;
40176;SDS011;31511;46.176;9.874;2022-10-16T04:04:29;15.55;;;10.52;;
40176;SDS011;31511;46.176;9.874;2022-10-16T04:06:56;9.57;;;8.48;;
40176;SDS011;31511;46.176;9.874;2022-10-16T04:09:22;12.82;;;9.85;;
40176;SDS011;31511;46.176;9.874;2022-10-16T04:11:48;12.20;;;8.70;;
40176;SDS011;31511;46.176;9.874;2022-10-16T04:14:15;10.32;;;8.77;;
40176;SDS011;31511;46.176;9.874;2022-10-16T04:16:42;10.23;;;7.82;;
40176;SDS011;31511;46.176;9.874;2022-10-16T04:19:09;10.77;;;8.55;;
40176;SDS011;31511;46.176;9.874;2022-10-16T04:21:35;11.90;;;8.05;;
40176;SDS011;31511;46.176;9.874;2022-10-16T04:24:01;13.35;;;9.13;;
40176;SDS011;31511;46.176;9.874;2022-10-16T04:26:28;9.75;;;8.20;;
40176;SDS011;31511;46.176;9.874;2022-10-16T04:28:54;14.48;;;8.25;;
40176;SDS011;31511;46.176;9.874;2022-10-16T04:31:21;15.07;;;9.13;;
40176;SDS011;31511;46.176;9.874;2022-10-16T04:33:49;11.38;;;8.25;;
40176;SDS011;31511;46.176;9.874;2022-10-16T04:36:16;10.43;;;8.45;;
40176;SDS011;31511;46.176;9.874;2022-10-16T04:38:42;9.65;;;7.55;;
40176;SDS011;31511;46.176;9.874;2022-10-16T04:41:08;9.85;;;7.60;;
40176;SDS011;31511;46.176;9.874;2022-10-16T04:43:34;14.55;;;7.88;;
40176;SDS011;31511;46.176;9.874;2022-10-16T04:46:01;9.68;;;7.95;;
40176;SDS011;31511;46.176;9.874;2022-10-16T04:48:30;10.95;;;8.45;;
40176;SDS011;31511;46.176;9.874;2022-10-16T04:50:56;11.60;;;8.90;;
40176;SDS011;31511;46.176;9.874;2022-10-16T04:53:22;17.48;;;9.63;;
40176;SDS011;31511;46.176;9.874;2022-10-16T04:55:49;14.02;;;8.98;;
40176;SDS011;31511;46.176;9.874;2022-10-16T04:58:16;14.02;;;9.60;;
40176;SDS011;31511;46.176;9.874;2022-10-16T05:00:43;12.65;;;9.98;;
40176;SDS011;31511;46.176;9.874;2022-10-16T05:03:11;11.45;;;8.43;;
40176;SDS011;31511;46.176;9.874;2022-10-16T05:05:41;13.55;;;8.35;;
40176;SDS011;31511;46.176;9.874;2022-10-16T05:08:08;11.85;;;9.05;;
40176;SDS011;31511;46.176;9.874;2022-10-16T05:10:34;12.35;;;8.43;;
40176;SDS011;31511;46.176;9.874;2022-10-16T05:13:00;13.55;;;8.85;;
40176;SDS011;31511;46.176;9.874;2022-10-16T05:15:28;15.02;;;9.68;;
40176;SDS011;31511;46.176;9.874;2022-10-16T05:17:56;13.73;;;8.65;;
40176;SDS011;31511;46.176;9.874;2022-10-16T05:20:22;11.77;;;9.32;;
40176;SDS011;31511;46.176;9.874;2022-10-16T05:22:48;12.88;;;8.35;;
40176;SDS011;31511;46.176;9.874;2022-10-16T05:25:15;14.27;;;9.50;;
40176;SDS011;31511;46.176;9.874;2022-10-16T05:27:41;11.75;;;9.40;;
40176;SDS011;31511;46.176;9.874;2022-10-16T05:30:07;10.70;;;8.90;;
40176;SDS011;31511;46.176;9.874;2022-10-16T05:32:34;15.80;;;8.95;;
40176;SDS011;31511;46.176;9.874;2022-10-16T05:35:00;13.82;;;8.48;;
40176;SDS011;31511;46.176;9.874;2022-10-16T05:37:27;9.90;;;8.20;;
40176;SDS011;31511;46.176;9.874;2022-10-16T05:39:55;12.48;;;8.88;;
40176;SDS011;31511;46.176;9.874;2022-10-16T05:42:21;11.40;;;9.30;;
40176;SDS011;31511;46.176;9.874;2022-10-16T05:44:47;13.15;;;9.25;;
40176;SDS011;31511;46.176;9.874;2022-10-16T05:47:13;12.88;;;8.23;;
40176;SDS011;31511;46.176;9.874;2022-10-16T05:49:39;10.27;;;8.65;;
40176;SDS011;31511;46.176;9.874;2022-10-16T05:52:05;10.43;;;9.13;;
40176;SDS011;31511;46.176;9.874;2022-10-16T05:54:31;12.15;;;9.25;;
40176;SDS011;31511;46.176;9.874;2022-10-16T05:56:57;13.38;;;8.95;;
40176;SDS011;31511;46.176;9.874;2022-10-16T05:59:23;12.30;;;8.55;;
40176;SDS011;31511;46.176;9.874;2022-10-16T06:01:49;10.93;;;8.85;;
40176;SDS011;31511;46.176;9.874;2022-10-16T06:04:16;11.77;;;9.05;;
40176;SDS011;31511;46.176;9.874;2022-10-16T06:06:42;12.02;;;8.60;;
40176;SDS011;31511;46.176;9.874;2022-10-16T06:09:08;13.15;;;9.23;;
40176;SDS011;31511;46.176;9.874;2022-10-16T06:11:34;15.20;;;9.27;;
40176;SDS011;31511;46.176;9.874;2022-10-16T06:14:01;10.63;;;7.93;;
40176;SDS011;31511;46.176;9.874;2022-10-16T06:16:32;11.05;;;8.18;;
40176;SDS011;31511;46.176;9.874;2022-10-16T06:18:58;14.13;;;8.90;;
40176;SDS011;31511;46.176;9.874;2022-10-16T06:21:27;12.68;;;8.80;;
40176;SDS011;31511;46.176;9.874;2022-10-16T06:23:55;10.48;;;8.15;;
40176;SDS011;31511;46.176;9.874;2022-10-16T06:26:24;13.75;;;8.45;;
40176;SDS011;31511;46.176;9.874;2022-10-16T06:28:54;11.25;;;7.80;;
40176;SDS011;31511;46.176;9.874;2022-10-16T06:31:20;11.68;;;8.68;;
40176;SDS011;31511;46.176;9.874;2022-10-16T06:33:49;12.15;;;8.90;;
40176;SDS011;31511;46.176;9.874;2022-10-16T06:36:16;17.13;;;10.15;;
40176;SDS011;31511;46.176;9.874;2022-10-16T06:38:43;13.38;;;9.88;;
40176;SDS011;31511;46.176;9.874;2022-10-16T06:41:10;17.83;;;10.45;;
40176;SDS011;31511;46.176;9.874;2022-10-16T06:43:37;12.38;;;8.95;;
40176;SDS011;31511;46.176;9.874;2022-10-16T06:46:03;11.30;;;9.23;;
40176;SDS011;31511;46.176;9.874;2022-10-16T06:48:30;13.80;;;10.25;;
40176;SDS011;31511;46.176;9.874;2022-10-16T06:53:31;14.07;;;10.82;;
40176;SDS011;31511;46.176;9.874;2022-10-16T06:55:57;14.57;;;10.57;;
40176;SDS011;31511;46.176;9.874;2022-10-16T06:58:23;14.40;;;11.52;;
40176;SDS011;31511;46.176;9.874;2022-10-16T07:00:55;13.45;;;10.43;;
40176;SDS011;31511;46.176;9.874;2022-10-16T07:03:22;12.55;;;9.18;;
40176;SDS011;31511;46.176;9.874;2022-10-16T07:05:48;20.02;;;10.57;;
40176;SDS011;31511;46.176;9.874;2022-10-16T07:08:14;13.93;;;9.13;;
40176;SDS011;31511;46.176;9.874;2022-10-16T07:10:40;13.68;;;10.38;;
40176;SDS011;31511;46.176;9.874;2022-10-16T07:13:06;13.60;;;9.38;;
40176;SDS011;31511;46.176;9.874;2022-10-16T07:15:33;13.13;;;9.85;;
40176;SDS011;31511;46.176;9.874;2022-10-16T07:17:59;12.52;;;9.25;;
40176;SDS011;31511;46.176;9.874;2022-10-16T07:20:25;16.83;;;10.98;;
40176;SDS011;31511;46.176;9.874;2022-10-16T07:22:51;13.95;;;9.80;;
40176;SDS011;31511;46.176;9.874;2022-10-16T07:25:17;11.00;;;9.05;;
40176;SDS011;31511;46.176;9.874;2022-10-16T07:27:43;12.18;;;9.73;;
40176;SDS011;31511;46.176;9.874;2022-10-16T07:30:10;12.98;;;10.50;;
40176;SDS011;31511;46.176;9.874;2022-10-16T07:32:36;16.52;;;10.98;;
40176;SDS011;31511;46.176;9.874;2022-10-16T07:35:02;16.02;;;11.48;;
40176;SDS011;31511;46.176;9.874;2022-10-16T07:37:28;15.98;;;9.80;;
40176;SDS011;31511;46.176;9.874;2022-10-16T07:39:54;16.25;;;10.23;;
40176;SDS011;31511;46.176;9.874;2022-10-16T07:42:20;12.95;;;9.60;;
40176;SDS011;31511;46.176;9.874;2022-10-16T07:44:46;12.23;;;9.98;;
40176;SDS011;31511;46.176;9.874;2022-10-16T07:47:12;11.95;;;10.15;;
40176;SDS011;31511;46.176;9.874;2022-10-16T07:49:38;16.08;;;10.80;;
40176;SDS011;31511;46.176;9.874;2022-10-16T07:52:04;11.70;;;9.43;;
40176;SDS011;31511;46.176;9.874;2022-10-16T07:54:30;13.77;;;10.48;;
40176;SDS011;31511;46.176;9.874;2022-10-16T07:56:56;12.85;;;10.32;;
40176;SDS011;31511;46.176;9.874;2022-10-16T07:59:22;18.92;;;11.65;;
40176;SDS011;31511;46.176;9.874;2022-10-16T08:01:49;14.48;;;10.45;;
40176;SDS011;31511;46.176;9.874;2022-10-16T08:04:15;16.90;;;10.75;;
40176;SDS011;31511;46.176;9.874;2022-10-16T08:06:41;13.50;;;11.13;;
40176;SDS011;31511;46.176;9.874;2022-10-16T08:09:08;13.50;;;10.52;;
40176;SDS011;31511;46.176;9.874;2022-10-16T08:11:34;12.35;;;10.30;;
40176;SDS011;31511;46.176;9.874;2022-10-16T08:14:00;12.52;;;10.48;;
40176;SDS011;31511;46.176;9.874;2022-10-16T08:16:28;14.30;;;10.10;;
40176;SDS011;31511;46.176;9.874;2022-10-16T08:18:56;14.38;;;10.95;;
40176;SDS011;31511;46.176;9.874;2022-10-16T08:21:24;14.50;;;10.85;;
40176;SDS011;31511;46.176;9.874;2022-10-16T08:23:53;13.68;;;10.50;;
40176;SDS011;31511;46.176;9.874;2022-10-16T08:26:21;15.25;;;10.60;;
40176;SDS011;31511;46.176;9.874;2022-10-16T08:28:49;16.75;;;11.00;;
40176;SDS011;31511;46.176;9.874;2022-10-16T08:31:16;13.60;;;11.48;;
40176;SDS011;31511;46.176;9.874;2022-10-16T08:33:44;13.45;;;10.43;;
40176;SDS011;31511;46.176;9.874;2022-10-16T08:36:12;15.90;;;11.15;;
40176;SDS011;31511;46.176;9.874;2022-10-16T08:38:39;15.45;;;10.73;;
40176;SDS011;31511;46.176;9.874;2022-10-16T08:46:50;14.82;;;11.35;;
40176;SDS011;31511;46.176;9.874;2022-10-16T08:51:43;12.93;;;10.02;;
40176;SDS011;31511;46.176;9.874;2022-10-16T08:54:15;13.25;;;11.18;;
40176;SDS011;31511;46.176;9.874;2022-10-16T08:56:47;15.02;;;11.88;;
40176;SDS011;31511;46.176;9.874;2022-10-16T08:59:14;14.23;;;10.57;;
40176;SDS011;31511;46.176;9.874;2022-10-16T09:01:45;14.40;;;10.73;;
40176;SDS011;31511;46.176;9.874;2022-10-16T09:12:16;11.90;;;9.40;;
40176;SDS011;31511;46.176;9.874;2022-10-16T09:22:40;12.95;;;10.18;;
40176;SDS011;31511;46.176;9.874;2022-10-16T09:25:14;15.48;;;10.82;;
40176;SDS011;31511;46.176;9.874;2022-10-16T09:27:42;14.43;;;9.20;;
40176;SDS011;31511;46.176;9.874;2022-10-16T09:30:10;16.52;;;11.65;;
40176;SDS011;31511;46.176;9.874;2022-10-16T09:32:37;14.85;;;10.02;;
40176;SDS011;31511;46.176;9.874;2022-10-16T09:35:04;12.63;;;9.38;;
40176;SDS011;31511;46.176;9.874;2022-10-16T09:37:37;13.88;;;9.65;;
40176;SDS011;31511;46.176;9.874;2022-10-16T09:40:04;12.13;;;9.13;;
40176;SDS011;31511;46.176;9.874;2022-10-16T09:42:31;13.00;;;8.57;;
40176;SDS011;31511;46.176;9.874;2022-10-16T09:44:58;13.10;;;8.77;;
40176;SDS011;31511;46.176;9.874;2022-10-16T09:47:27;13.25;;;9.73;;
40176;SDS011;31511;46.176;9.874;2022-10-16T09:49:58;10.38;;;9.30;;
40176;SDS011;31511;46.176;9.874;2022-10-16T09:52:28;11.63;;;8.90;;
40176;SDS011;31511;46.176;9.874;2022-10-16T09:54:55;9.45;;;7.80;;
40176;SDS011;31511;46.176;9.874;2022-10-16T09:57:23;10.55;;;7.93;;
40176;SDS011;31511;46.176;9.874;2022-10-16T09:59:53;9.10;;;7.80;;
40176;SDS011;31511;46.176;9.874;2022-10-16T10:02:23;8.93;;;8.02;;
40176;SDS011;31511;46.176;9.874;2022-10-16T10:04:53;10.65;;;8.05;;
40176;SDS011;31511;46.176;9.874;2022-10-16T10:07:31;9.15;;;8.25;;
40176;SDS011;31511;46.176;9.874;2022-10-16T10:10:02;8.80;;;7.07;;
40176;SDS011;31511;46.176;9.874;2022-10-16T10:12:30;11.50;;;7.30;;
40176;SDS011;31511;46.176;9.874;2022-10-16T10:14:58;10.23;;;7.40;;
40176;SDS011;31511;46.176;9.874;2022-10-16T10:17:29;9.52;;;6.90;;
40176;SDS011;31511;46.176;9.874;2022-10-16T10:19:56;10.05;;;7.22;;
40176;SDS011;31511;46.176;9.874;2022-10-16T10:22:39;8.80;;;7.10;;
40176;SDS011;31511;46.176;9.874;2022-10-16T10:35:39;7.68;;;6.68;;
40176;SDS011;31511;46.176;9.874;2022-10-16T10:49:01;7.68;;;6.82;;
40176;SDS011;31511;46.176;9.874;2022-10-16T10:51:54;9.10;;;7.13;;
40176;SDS011;31511;46.176;9.874;2022-10-16T10:54:26;7.45;;;6.40;;
40176;SDS011;31511;46.176;9.874;2022-10-16T10:56:57;10.07;;;7.22;;
40176;SDS011;31511;46.176;9.874;2022-10-16T11:01:56;7.43;;;6.32;;
40176;SDS011;31511;46.176;9.874;2022-10-16T11:04:34;8.70;;;6.45;;
40176;SDS011;31511;46.176;9.874;2022-10-16T11:07:02;6.53;;;5.82;;
40176;SDS011;31511;46.176;9.874;2022-10-16T11:09:33;10.90;;;6.60;;
40176;SDS011;31511;46.176;9.874;2022-10-16T11:12:04;7.78;;;6.20;;
40176;SDS011;31511;46.176;9.874;2022-10-16T11:22:36;7.57;;;6.35;;
40176;SDS011;31511;46.176;9.874;2022-10-16T11:25:13;8.07;;;5.55;;
40176;SDS011;31511;46.176;9.874;2022-10-16T11:27:43;8.98;;;5.35;;
40176;SDS011;31511;46.176;9.874;2022-10-16T11:30:19;6.40;;;5.72;;
40176;SDS011;31511;46.176;9.874;2022-10-16T11:32:52;8.43;;;5.57;;
40176;SDS011;31511;46.176;9.874;2022-10-16T11:37:48;8.48;;;6.15;;
40176;SDS011;31511;46.176;9.874;2022-10-16T11:40:25;10.25;;;5.75;;
40176;SDS011;31511;46.176;9.874;2022-10-16T11:43:00;6.18;;;5.15;;
40176;SDS011;31511;46.176;9.874;2022-10-16T11:48:08;7.57;;;5.15;;
40176;SDS011;31511;46.176;9.874;2022-10-16T11:53:45;6.32;;;5.15;;
40176;SDS011;31511;46.176;9.874;2022-10-16T11:56:12;5.57;;;4.70;;
40176;SDS011;31511;46.176;9.874;2022-10-16T12:01:19;6.85;;;4.60;;
40176;SDS011;31511;46.176;9.874;2022-10-16T12:03:53;4.97;;;4.13;;
40176;SDS011;31511;46.176;9.874;2022-10-16T12:06:34;4.40;;;4.00;;
40176;SDS011;31511;46.176;9.874;2022-10-16T12:09:03;5.00;;;4.28;;
40176;SDS011;31511;46.176;9.874;2022-10-16T12:16:31;4.60;;;4.07;;
40176;SDS011;31511;46.176;9.874;2022-10-16T12:19:13;7.85;;;4.32;;
40176;SDS011;31511;46.176;9.874;2022-10-16T12:21:40;4.35;;;3.95;;
40176;SDS011;31511;46.176;9.874;2022-10-16T12:24:18;4.43;;;3.63;;
40176;SDS011;31511;46.176;9.874;2022-10-16T12:26:48;4.15;;;3.75;;
40176;SDS011;31511;46.176;9.874;2022-10-16T12:29:23;3.90;;;3.42;;
40176;SDS011;31511;46.176;9.874;2022-10-16T12:31:52;4.72;;;4.32;;
40176;SDS011;31511;46.176;9.874;2022-10-16T12:34:23;4.68;;;3.90;;
40176;SDS011;31511;46.176;9.874;2022-10-16T12:36:54;4.70;;;3.45;;
40176;SDS011;31511;46.176;9.874;2022-10-16T12:39:23;6.70;;;4.40;;
40176;SDS011;31511;46.176;9.874;2022-10-16T12:42:06;5.82;;;4.68;;
40176;SDS011;31511;46.176;9.874;2022-10-16T12:44:44;4.53;;;3.72;;
40176;SDS011;31511;46.176;9.874;2022-10-16T12:49:55;6.40;;;4.18;;
40176;SDS011;31511;46.176;9.874;2022-10-16T12:52:43;4.68;;;4.10;;
40176;SDS011;31511;46.176;9.874;2022-10-16T12:55:15;5.78;;;4.57;;
40176;SDS011;31511;46.176;9.874;2022-10-16T13:13:59;5.03;;;4.00;;
40176;SDS011;31511;46.176;9.874;2022-10-16T13:16:40;7.20;;;4.85;;
40176;SDS011;31511;46.176;9.874;2022-10-16T13:22:00;6.53;;;4.28;;
40176;SDS011;31511;46.176;9.874;2022-10-16T13:24:37;5.05;;;4.55;;
40176;SDS011;31511;46.176;9.874;2022-10-16T13:27:13;5.88;;;4.72;;
40176;SDS011;31511;46.176;9.874;2022-10-16T13:29:41;5.93;;;4.47;;
40176;SDS011;31511;46.176;9.874;2022-10-16T13:32:09;4.47;;;3.72;;
40176;SDS011;31511;46.176;9.874;2022-10-16T13:34:43;7.22;;;5.18;;
40176;SDS011;31511;46.176;9.874;2022-10-16T13:37:17;6.47;;;4.80;;
40176;SDS011;31511;46.176;9.874;2022-10-16T13:39:43;7.45;;;5.40;;
40176;SDS011;31511;46.176;9.874;2022-10-16T13:42:11;5.30;;;4.72;;
40176;SDS011;31511;46.176;9.874;2022-10-16T13:44:42;5.32;;;4.72;;
40176;SDS011;31511;46.176;9.874;2022-10-16T13:47:28;5.90;;;4.70;;
40176;SDS011;31511;46.176;9.874;2022-10-16T13:50:01;5.53;;;4.57;;
40176;SDS011;31511;46.176;9.874;2022-10-16T13:52:28;5.68;;;4.25;;
40176;SDS011;31511;46.176;9.874;2022-10-16T13:54:55;5.00;;;4.43;;
40176;SDS011;31511;46.176;9.874;2022-10-16T13:57:23;8.02;;;4.85;;
40176;SDS011;31511;46.176;9.874;2022-10-16T13:59:52;6.07;;;4.70;;
40176;SDS011;31511;46.176;9.874;2022-10-16T14:04:47;4.43;;;4.03;;
40176;SDS011;31511;46.176;9.874;2022-10-16T14:07:20;5.07;;;3.83;;
40176;SDS011;31511;46.176;9.874;2022-10-16T14:09:49;6.65;;;4.65;;
40176;SDS011;31511;46.176;9.874;2022-10-16T14:12:16;5.18;;;4.63;;
40176;SDS011;31511;46.176;9.874;2022-10-16T14:14:43;6.18;;;5.07;;
40176;SDS011;31511;46.176;9.874;2022-10-16T14:19:46;6.82;;;5.32;;
40176;SDS011;31511;46.176;9.874;2022-10-16T14:24:57;6.22;;;4.20;;
40176;SDS011;31511;46.176;9.874;2022-10-16T14:30:14;4.30;;;3.90;;
40176;SDS011;31511;46.176;9.874;2022-10-16T14:32:40;6.05;;;4.80;;
40176;SDS011;31511;46.176;9.874;2022-10-16T14:37:52;5.90;;;4.82;;
40176;SDS011;31511;46.176;9.874;2022-10-16T14:40:18;6.20;;;4.45;;
40176;SDS011;31511;46.176;9.874;2022-10-16T14:42:44;6.70;;;3.78;;
40176;SDS011;31511;46.176;9.874;2022-10-16T14:45:12;6.07;;;4.43;;
40176;SDS011;31511;46.176;9.874;2022-10-16T14:48:00;7.65;;;4.57;;
40176;SDS011;31511;46.176;9.874;2022-10-16T14:50:27;6.97;;;4.20;;
40176;SDS011;31511;46.176;9.874;2022-10-16T14:52:53;7.13;;;4.60;;
40176;SDS011;31511;46.176;9.874;2022-10-16T14:55:21;8.95;;;5.28;;
40176;SDS011;31511;46.176;9.874;2022-10-16T14:57:49;5.22;;;4.28;;
40176;SDS011;31511;46.176;9.874;2022-10-16T15:00:17;5.07;;;4.57;;
40176;SDS011;31511;46.176;9.874;2022-10-16T15:02:43;7.22;;;4.47;;
40176;SDS011;31511;46.176;9.874;2022-10-16T15:05:18;6.50;;;4.97;;
40176;SDS011;31511;46.176;9.874;2022-10-16T15:07:44;9.35;;;5.90;;
40176;SDS011;31511;46.176;9.874;2022-10-16T15:10:11;7.35;;;5.15;;
40176;SDS011;31511;46.176;9.874;2022-10-16T15:12:38;7.03;;;5.70;;
40176;SDS011;31511;46.176;9.874;2022-10-16T15:15:15;8.88;;;4.82;;
40176;SDS011;31511;46.176;9.874;2022-10-16T15:17:41;7.40;;;5.25;;
40176;SDS011;31511;46.176;9.874;2022-10-16T15:20:07;7.50;;;5.10;;
40176;SDS011;31511;46.176;9.874;2022-10-16T15:22:34;6.13;;;5.22;;
40176;SDS011;31511;46.176;9.874;2022-10-16T15:25:00;6.95;;;5.95;;
40176;SDS011;31511;46.176;9.874;2022-10-16T15:27:27;6.47;;;5.63;;
40176;SDS011;31511;46.176;9.874;2022-10-16T15:29:55;9.18;;;5.00;;
40176;SDS011;31511;46.176;9.874;2022-10-16T15:32:21;6.95;;;5.35;;
40176;SDS011;31511;46.176;9.874;2022-10-16T15:34:47;9.18;;;7.68;;
40176;SDS011;31511;46.176;9.874;2022-10-16T15:37:14;8.13;;;6.07;;
40176;SDS011;31511;46.176;9.874;2022-10-16T15:39:42;8.60;;;6.05;;
40176;SDS011;31511;46.176;9.874;2022-10-16T15:42:08;12.20;;;6.22;;
40176;SDS011;31511;46.176;9.874;2022-10-16T15:44:35;10.10;;;6.53;;
40176;SDS011;31511;46.176;9.874;2022-10-16T15:47:01;10.73;;;7.07;;
40176;SDS011;31511;46.176;9.874;2022-10-16T15:49:29;8.73;;;7.10;;
40176;SDS011;31511;46.176;9.874;2022-10-16T15:51:55;8.20;;;7.03;;
40176;SDS011;31511;46.176;9.874;2022-10-16T15:54:22;9.13;;;7.00;;
40176;SDS011;31511;46.176;9.874;2022-10-16T15:56:50;7.82;;;6.22;;
40176;SDS011;31511;46.176;9.874;2022-10-16T15:59:16;9.57;;;7.30;;
40176;SDS011;31511;46.176;9.874;2022-10-16T16:01:42;10.32;;;8.32;;
40176;SDS011;31511;46.176;9.874;2022-10-16T16:04:09;9.82;;;7.35;;
40176;SDS011;31511;46.176;9.874;2022-10-16T16:06:36;11.88;;;6.75;;
40176;SDS011;31511;46.176;9.874;2022-10-16T16:09:04;7.40;;;5.80;;
40176;SDS011;31511;46.176;9.874;2022-10-16T16:11:30;10.20;;;6.15;;
40176;SDS011;31511;46.176;9.874;2022-10-16T16:13:58;7.88;;;6.25;;
40176;SDS011;31511;46.176;9.874;2022-10-16T16:16:24;12.25;;;6.93;;
40176;SDS011;31511;46.176;9.874;2022-10-16T16:18:52;9.85;;;7.03;;
40176;SDS011;31511;46.176;9.874;2022-10-16T16:21:18;10.27;;;8.45;;
40176;SDS011;31511;46.176;9.874;2022-10-16T16:23:44;9.82;;;6.93;;
40176;SDS011;31511;46.176;9.874;2022-10-16T16:26:29;14.60;;;8.45;;
40176;SDS011;31511;46.176;9.874;2022-10-16T16:29:03;12.48;;;9.52;;
40176;SDS011;31511;46.176;9.874;2022-10-16T16:31:31;14.80;;;9.30;;
40176;SDS011;31511;46.176;9.874;2022-10-16T16:33:58;9.25;;;7.75;;
40176;SDS011;31511;46.176;9.874;2022-10-16T16:36:26;15.30;;;8.50;;
40176;SDS011;31511;46.176;9.874;2022-10-16T16:38:54;11.43;;;6.90;;
40176;SDS011;31511;46.176;9.874;2022-10-16T16:41:23;9.90;;;8.02;;
40176;SDS011;31511;46.176;9.874;2022-10-16T16:43:52;11.27;;;6.80;;
40176;SDS011;31511;46.176;9.874;2022-10-16T16:46:18;10.70;;;7.30;;